Time;durP1;ratioP1;P1;durP2;ratioP2;P2;SDS_P1;SDS_P2;PMS_P1;PMS_P2;Temp;Humidity;BMP_temperature;BMP_pressure;BME280_temperature;BME280_humidity;BME280_pressure;Samples;Min_cycle;Max_cycle;Signal;HPM_P1;HPM_P2
2022/04/25 00:01:07;;;;;;;5.97;3.00;;;7.10;99.90;;;;;;5107805;27;20268;-42
2022/04/25 00:03:33;;;;;;;6.70;3.40;;;7.10;99.90;;;;;;5093873;27;20217;-43
2022/04/25 00:06:01;;;;;;;6.67;3.40;;;7.10;99.90;;;;;;5095942;28;20237;-42
2022/04/25 00:08:28;;;;;;;10.07;3.77;;;7.10;99.90;;;;;;5082130;28;20205;-43
2022/04/25 00:10:55;;;;;;;5.03;3.10;;;7.10;99.90;;;;;;5088627;28;20194;-40
2022/04/25 00:13:21;;;;;;;6.37;3.33;;;7.10;99.90;;;;;;5079408;27;20218;-39
2022/04/25 00:15:49;;;;;;;6.83;3.47;;;7.10;99.90;;;;;;5101170;27;20199;-43
2022/04/25 00:18:15;;;;;;;7.37;3.10;;;7.10;99.90;;;;;;5085638;27;20209;-40
2022/04/25 00:20:42;;;;;;;6.70;3.50;;;7.10;99.90;;;;;;5105659;27;20200;-41
2022/04/25 00:23:10;;;;;;;9.53;3.33;;;7.10;99.90;;;;;;5086143;28;20274;-39
2022/04/25 00:25:37;;;;;;;5.33;2.57;;;7.10;99.90;;;;;;5091056;27;20216;-41
2022/04/25 00:28:05;;;;;;;5.07;2.93;;;7.10;99.90;;;;;;5113850;27;20200;-39
2022/04/25 00:30:32;;;;;;;8.70;3.13;;;7.10;99.90;;;;;;5091927;27;20192;-40
2022/04/25 00:33:00;;;;;;;4.13;2.90;;;7.10;99.90;;;;;;5107513;27;20256;-40
2022/04/25 00:35:27;;;;;;;5.40;3.27;;;7.10;99.90;;;;;;5093241;28;20197;-41
2022/04/25 00:37:55;;;;;;;4.37;3.27;;;7.00;99.90;;;;;;5100202;28;20201;-39
2022/04/25 00:40:25;;;;;;;6.80;3.43;;;7.00;99.90;;;;;;5091533;28;20202;-41
2022/04/25 00:42:52;;;;;;;4.60;2.83;;;7.00;99.90;;;;;;5085429;28;20210;-40
2022/04/25 00:45:19;;;;;;;4.80;3.00;;;7.00;99.90;;;;;;5083950;27;20658;-40
2022/04/25 00:47:47;;;;;;;6.37;2.90;;;7.00;99.90;;;;;;5093660;27;20914;-40
2022/04/25 00:50:15;;;;;;;5.17;2.90;;;7.00;99.90;;;;;;5091269;27;20208;-39
2022/04/25 00:52:43;;;;;;;7.60;3.40;;;7.00;99.90;;;;;;5093705;28;21004;-40
2022/04/25 00:55:12;;;;;;;6.63;2.87;;;7.00;99.90;;;;;;5091929;28;20606;-40
2022/04/25 00:57:40;;;;;;;3.93;3.03;;;7.00;99.90;;;;;;5094753;27;20557;-39
2022/04/25 01:00:10;;;;;;;5.77;3.23;;;7.00;99.90;;;;;;5085003;28;20198;-41
2022/04/25 01:02:37;;;;;;;5.10;2.63;;;7.00;99.90;;;;;;5089089;27;20237;-40
2022/04/25 01:05:06;;;;;;;3.17;2.83;;;7.00;99.90;;;;;;5101321;27;20205;-40
2022/04/25 01:07:32;;;;;;;3.63;2.70;;;7.00;99.90;;;;;;5080164;27;20231;-40
2022/04/25 01:10:00;;;;;;;6.80;3.07;;;7.00;99.90;;;;;;5103023;27;20196;-39
2022/04/25 01:12:27;;;;;;;5.90;2.70;;;7.00;99.90;;;;;;5086284;28;20282;-39
2022/04/25 01:15:00;;;;;;;9.23;3.23;;;7.00;99.90;;;;;;5081460;28;20209;-42
2022/04/25 01:17:26;;;;;;;9.13;2.60;;;7.00;99.90;;;;;;5095276;27;20201;-39
2022/04/25 01:19:53;;;;;;;9.40;3.00;;;7.00;99.90;;;;;;5093698;27;20194;-40
2022/04/25 01:22:25;;;;;;;4.93;2.67;;;7.00;99.90;;;;;;5094368;28;20217;-41
2022/04/25 01:27:38;;;;;;;4.47;2.60;;;7.00;99.90;;;;;;5106364;27;20700;-39
2022/04/25 01:30:08;;;;;;;6.83;3.10;;;6.90;99.90;;;;;;5081493;27;20255;-40
2022/04/25 01:32:35;;;;;;;4.87;2.70;;;6.90;99.90;;;;;;5092557;27;20229;-43
2022/04/25 01:35:02;;;;;;;4.47;2.43;;;6.90;99.90;;;;;;5082384;27;20404;-40
2022/04/25 01:37:29;;;;;;;2.60;1.90;;;6.80;99.90;;;;;;5094892;27;20300;-42
2022/04/25 01:39:58;;;;;;;4.60;2.57;;;6.80;99.90;;;;;;5094153;28;20212;-40
2022/04/25 01:42:25;;;;;;;6.80;3.07;;;6.80;99.90;;;;;;5084117;28;20228;-40
2022/04/25 01:44:52;;;;;;;4.30;2.73;;;6.80;99.90;;;;;;5084458;28;20205;-40
2022/04/25 01:47:19;;;;;;;3.07;2.00;;;6.80;99.90;;;;;;5083832;27;20217;-40
2022/04/25 01:49:46;;;;;;;4.77;2.10;;;6.80;99.90;;;;;;5095407;27;20547;-39
2022/04/25 01:52:20;;;;;;;9.23;2.57;;;6.80;99.90;;;;;;5090751;27;20223;-40
2022/04/25 01:54:48;;;;;;;4.90;1.83;;;6.70;99.90;;;;;;5102247;27;20287;-40
2022/04/25 01:57:16;;;;;;;2.47;2.17;;;6.70;99.90;;;;;;5089283;27;20219;-40
2022/04/25 01:59:44;;;;;;;4.80;2.00;;;6.70;99.90;;;;;;5093496;27;20225;-40
2022/04/25 02:02:12;;;;;;;4.10;2.30;;;6.60;99.90;;;;;;5076470;27;20225;-39
2022/04/25 02:04:40;;;;;;;6.87;1.93;;;6.60;99.90;;;;;;5108374;27;20976;-39
2022/04/25 02:07:08;;;;;;;6.43;2.33;;;6.60;99.90;;;;;;5094889;28;20307;-40
2022/04/25 02:09:34;;;;;;;4.07;2.20;;;6.60;99.90;;;;;;5088297;28;20206;-40
2022/04/25 02:12:02;;;;;;;4.60;2.13;;;6.60;99.90;;;;;;5104437;27;20294;-39
2022/04/25 02:14:30;;;;;;;4.93;1.77;;;6.60;99.90;;;;;;5094171;27;20269;-40
2022/04/25 02:16:58;;;;;;;8.67;2.43;;;6.60;99.90;;;;;;5085172;28;20668;-40
2022/04/25 02:19:25;;;;;;;4.67;2.77;;;6.60;99.90;;;;;;5091960;27;20365;-42
2022/04/25 02:21:53;;;;;;;4.80;2.33;;;6.60;99.90;;;;;;5102077;27;20235;-41
2022/04/25 02:24:21;;;;;;;4.73;2.00;;;6.60;99.90;;;;;;5083703;28;20239;-40
2022/04/25 02:26:49;;;;;;;2.20;2.00;;;6.60;99.90;;;;;;5093545;28;20209;-41
2022/04/25 02:29:16;;;;;;;7.17;2.27;;;6.60;99.90;;;;;;5102150;28;20196;-40
2022/04/25 02:31:44;;;;;;;9.17;3.43;;;6.60;99.90;;;;;;5091656;28;20220;-40
2022/04/25 02:34:11;;;;;;;7.10;1.83;;;6.60;99.90;;;;;;5086453;28;20193;-40
2022/04/25 02:36:38;;;;;;;5.03;1.93;;;6.60;99.90;;;;;;5094379;28;20205;-40
2022/04/25 02:39:05;;;;;;;8.50;2.30;;;6.60;99.90;;;;;;5082777;28;20189;-40
2022/04/25 02:41:32;;;;;;;4.73;2.30;;;6.60;99.90;;;;;;5098382;28;20205;-40
2022/04/25 02:43:59;;;;;;;7.13;2.43;;;6.60;99.90;;;;;;5084678;28;20193;-40
2022/04/25 02:46:26;;;;;;;7.60;2.00;;;6.60;99.90;;;;;;5087113;28;20556;-40
2022/04/25 02:48:53;;;;;;;5.73;2.13;;;6.50;99.90;;;;;;5093213;28;20196;-41
2022/04/25 02:51:21;;;;;;;3.90;2.20;;;6.50;99.90;;;;;;5086048;28;20204;-39
2022/04/25 02:53:47;;;;;;;5.03;2.20;;;6.50;99.90;;;;;;5095028;28;20605;-41
2022/04/25 02:56:14;;;;;;;4.13;2.30;;;6.50;99.90;;;;;;5100606;28;20302;-40
2022/04/25 02:58:43;;;;;;;5.33;2.17;;;6.50;99.90;;;;;;5099672;27;20202;-39
2022/04/25 03:01:10;;;;;;;3.87;2.20;;;6.50;99.90;;;;;;5084200;28;20182;-40
2022/04/25 03:03:39;;;;;;;3.57;2.20;;;6.40;99.90;;;;;;5088949;28;20583;-40
2022/04/25 03:06:09;;;;;;;7.03;2.40;;;6.50;99.90;;;;;;5101965;28;20277;-41
2022/04/25 03:08:38;;;;;;;3.30;2.17;;;6.40;99.90;;;;;;5100198;28;20680;-39
2022/04/25 03:11:08;;;;;;;4.40;2.00;;;6.40;99.90;;;;;;5092593;28;20212;-39
2022/04/25 03:13:35;;;;;;;8.47;2.50;;;6.40;99.90;;;;;;5099611;28;20224;-41
2022/04/25 03:16:04;;;;;;;3.50;2.10;;;6.40;99.90;;;;;;5096277;28;20192;-41
2022/04/25 03:18:30;;;;;;;5.07;1.80;;;6.40;99.90;;;;;;5093511;28;20212;-42
2022/04/25 03:20:58;;;;;;;6.10;2.13;;;6.40;99.90;;;;;;5086937;27;20197;-40
2022/04/25 03:23:26;;;;;;;6.50;2.87;;;6.40;99.90;;;;;;5089004;28;20217;-41
2022/04/25 03:25:53;;;;;;;7.33;2.30;;;6.40;99.90;;;;;;5089910;28;20200;-40
2022/04/25 03:28:21;;;;;;;5.03;2.53;;;6.40;99.90;;;;;;5090229;28;20214;-40
2022/04/25 03:30:48;;;;;;;6.17;2.27;;;6.40;99.90;;;;;;5083820;28;20268;-40
2022/04/25 03:33:15;;;;;;;5.10;2.27;;;6.40;99.90;;;;;;5082059;28;20210;-40
2022/04/25 03:35:45;;;;;;;2.40;1.80;;;6.40;99.90;;;;;;5087838;27;20710;-39
2022/04/25 03:38:12;;;;;;;4.07;2.13;;;6.30;99.90;;;;;;5108703;27;20264;-40
2022/04/25 03:40:41;;;;;;;4.93;2.20;;;6.30;99.90;;;;;;5094989;28;20244;-42
2022/04/25 03:43:08;;;;;;;3.00;1.90;;;6.30;99.90;;;;;;5096136;27;20268;-43
2022/04/25 03:45:36;;;;;;;5.43;1.97;;;6.30;99.90;;;;;;5090259;28;20212;-39
2022/04/25 03:48:03;;;;;;;3.37;1.67;;;6.30;99.90;;;;;;5098923;28;20213;-40
2022/04/25 03:50:32;;;;;;;3.40;2.20;;;6.30;99.90;;;;;;5090969;27;20278;-39
2022/04/25 03:53:05;;;;;;;7.43;2.23;;;6.30;99.90;;;;;;5103568;27;21083;-39
2022/04/25 03:58:18;;;;;;;4.27;2.03;;;6.30;99.90;;;;;;5093733;28;20242;-39
2022/04/25 04:00:45;;;;;;;5.17;2.00;;;6.30;99.90;;;;;;5087160;28;20386;-39
2022/04/25 04:03:14;;;;;;;2.80;1.90;;;6.20;99.90;;;;;;5100020;27;20232;-40
2022/04/25 04:05:42;;;;;;;6.10;1.93;;;6.20;99.90;;;;;;5091518;27;20272;-40
2022/04/25 04:08:09;;;;;;;4.40;2.17;;;6.20;99.90;;;;;;5090890;27;20740;-39
2022/04/25 04:10:36;;;;;;;4.73;1.93;;;6.20;99.90;;;;;;5094844;27;21005;-40
2022/04/25 04:13:05;;;;;;;5.63;2.67;;;6.20;99.90;;;;;;5100322;27;20302;-40
2022/04/25 04:15:33;;;;;;;4.93;2.23;;;6.20;99.90;;;;;;5101324;27;20837;-39
2022/04/25 04:18:00;;;;;;;3.27;1.97;;;6.10;99.90;;;;;;5096626;27;20204;-39
2022/04/25 04:20:27;;;;;;;4.70;2.30;;;6.10;99.90;;;;;;5084629;27;20682;-40
2022/04/25 04:22:54;;;;;;;2.73;2.00;;;6.10;99.90;;;;;;5087139;27;20213;-40
2022/04/25 04:25:22;;;;;;;2.40;1.93;;;6.10;99.90;;;;;;5105626;27;20201;-41
2022/04/25 04:27:49;;;;;;;6.37;2.17;;;6.10;99.90;;;;;;5095929;28;20286;-40
2022/04/25 04:30:18;;;;;;;3.90;2.07;;;6.10;99.90;;;;;;5094440;27;20248;-40
2022/04/25 04:32:47;;;;;;;5.33;2.10;;;6.10;99.90;;;;;;5094011;28;20662;-39
2022/04/25 04:36:17;;;;;;;4.27;2.10;;;6.00;99.90;;;;;;5090514;27;20201;-40
2022/04/25 04:38:03;;;;;;;8.03;1.93;;;6.00;99.90;;;;;;5082033;27;20554;-42
2022/04/25 04:40:30;;;;;;;3.37;2.00;;;6.00;99.90;;;;;;5087600;27;20888;-39
2022/04/25 04:42:58;;;;;;;4.67;2.43;;;6.00;99.90;;;;;;5094035;27;20232;-39
2022/04/25 04:45:25;;;;;;;3.63;1.90;;;5.90;99.90;;;;;;5088902;27;20190;-39
2022/04/25 04:47:54;;;;;;;4.57;2.00;;;5.90;99.90;;;;;;5089256;28;20661;-40
2022/04/25 04:50:21;;;;;;;3.40;2.03;;;5.90;99.90;;;;;;5086787;27;20807;-40
2022/04/25 04:52:50;;;;;;;6.83;2.13;;;5.80;99.90;;;;;;5089851;27;20912;-40
2022/04/25 04:55:17;;;;;;;4.07;2.13;;;5.80;99.90;;;;;;5105061;27;20571;-39
2022/04/25 04:57:44;;;;;;;3.73;2.07;;;5.80;99.90;;;;;;5087786;27;20197;-40
2022/04/25 05:00:14;;;;;;;6.63;2.20;;;5.80;99.90;;;;;;5109222;27;20700;-40
2022/04/25 05:02:44;;;;;;;6.20;2.50;;;5.80;99.90;;;;;;5091766;28;20279;-40
2022/04/25 05:05:14;;;;;;;6.90;1.90;;;5.80;99.90;;;;;;5100405;27;20277;-41
2022/04/25 05:07:41;;;;;;;4.57;2.47;;;5.80;99.90;;;;;;5096640;27;20269;-40
2022/04/25 05:10:09;;;;;;;6.87;2.40;;;5.80;99.90;;;;;;5090633;27;20230;-40
2022/04/25 05:12:46;;;;;;;5.37;2.73;;;5.90;99.90;;;;;;5091751;27;20209;-40
2022/04/25 05:15:15;;;;;;;3.33;2.20;;;5.90;99.90;;;;;;5094846;27;20201;-39
2022/04/25 05:17:43;;;;;;;3.67;2.33;;;5.90;99.90;;;;;;5094632;28;20189;-40
2022/04/25 05:20:13;;;;;;;4.03;2.30;;;6.00;99.90;;;;;;5095016;27;20202;-41
2022/04/25 05:22:44;;;;;;;3.87;2.50;;;6.00;99.90;;;;;;5112071;27;20226;-40
2022/04/25 05:25:11;;;;;;;5.77;2.23;;;6.00;99.90;;;;;;5081262;27;20213;-40
2022/04/25 05:27:39;;;;;;;3.43;1.80;;;6.10;99.90;;;;;;5110724;27;20991;-38
2022/04/25 05:30:07;;;;;;;7.00;2.47;;;6.10;99.90;;;;;;5088869;28;20201;-42
2022/04/25 05:32:45;;;;;;;4.53;2.60;;;6.20;99.90;;;;;;5100506;27;20221;-41
2022/04/25 05:35:14;;;;;;;4.30;2.10;;;6.20;99.90;;;;;;5086551;27;20928;-41
2022/04/25 05:37:41;;;;;;;2.90;2.17;;;6.30;99.90;;;;;;5095349;28;20199;-43
2022/04/25 05:40:08;;;;;;;5.17;2.13;;;6.30;99.90;;;;;;5087370;27;20205;-41
2022/04/25 05:42:36;;;;;;;2.90;2.00;;;6.40;99.90;;;;;;5101754;27;20258;-39
2022/04/25 05:45:05;;;;;;;5.20;2.00;;;6.40;99.90;;;;;;5090373;27;20684;-40
2022/04/25 05:47:32;;;;;;;3.97;2.43;;;6.50;99.90;;;;;;5088157;28;20337;-42
2022/04/25 05:52:47;;;;;;;5.43;2.60;;;6.70;99.90;;;;;;5101580;27;20581;-41
2022/04/25 05:55:13;;;;;;;5.40;2.30;;;6.70;99.90;;;;;;5097717;27;20617;-41
2022/04/25 05:57:41;;;;;;;3.60;2.10;;;6.80;99.90;;;;;;5084940;27;20797;-42
2022/04/25 06:00:09;;;;;;;7.43;2.43;;;6.90;99.90;;;;;;5094722;28;20243;-42
2022/04/25 06:02:41;;;;;;;5.37;2.20;;;6.90;99.90;;;;;;5102532;27;20308;-43
2022/04/25 06:05:10;;;;;;;4.77;2.40;;;7.00;99.90;;;;;;5087763;27;20310;-40
2022/04/25 06:07:36;;;;;;;3.70;2.27;;;7.00;99.90;;;;;;5097414;27;20216;-40
2022/04/25 06:10:05;;;;;;;3.37;2.80;;;7.00;99.90;;;;;;5087703;27;20202;-41
2022/04/25 06:12:32;;;;;;;5.47;2.17;;;7.10;99.90;;;;;;5095583;27;20712;-41
2022/04/25 06:15:00;;;;;;;6.77;2.27;;;7.20;99.90;;;;;;5093668;27;20208;-43
2022/04/25 06:17:27;;;;;;;8.50;1.90;;;7.20;99.90;;;;;;5087187;27;20282;-43
2022/04/25 06:19:54;;;;;;;4.70;2.10;;;7.20;99.90;;;;;;5092341;27;20198;-41
2022/04/25 06:22:21;;;;;;;3.67;1.87;;;7.30;99.90;;;;;;5083020;28;20267;-41
2022/04/25 06:24:48;;;;;;;4.47;2.33;;;7.40;99.90;;;;;;5097312;27;20190;-41
2022/04/25 06:27:16;;;;;;;6.80;2.40;;;7.40;99.90;;;;;;5085864;28;20224;-44
2022/04/25 06:29:46;;;;;;;6.70;2.47;;;7.50;99.90;;;;;;5093323;27;20184;-40
2022/04/25 06:32:13;;;;;;;2.17;1.80;;;7.60;99.90;;;;;;5094714;27;20221;-41
2022/04/25 06:34:41;;;;;;;3.47;1.90;;;7.60;99.90;;;;;;5095651;27;20188;-42
2022/04/25 06:37:08;;;;;;;3.93;1.80;;;7.70;99.90;;;;;;5096297;28;20209;-41
2022/04/25 06:39:35;;;;;;;7.43;2.33;;;7.70;99.90;;;;;;5094207;28;20716;-43
2022/04/25 06:42:01;;;;;;;4.73;2.33;;;7.80;99.90;;;;;;5092990;28;20300;-39
2022/04/25 06:44:30;;;;;;;3.37;2.00;;;7.90;99.90;;;;;;5088826;28;20210;-40
2022/04/25 06:46:57;;;;;;;3.07;1.73;;;8.00;99.90;;;;;;5099667;28;20249;-41
2022/04/25 06:49:24;;;;;;;4.50;2.23;;;8.00;99.90;;;;;;5090848;27;20224;-39
2022/04/25 06:51:51;;;;;;;3.40;2.13;;;8.10;99.90;;;;;;5080132;28;20410;-39
2022/04/25 06:54:18;;;;;;;3.27;2.20;;;8.30;99.90;;;;;;5100076;28;20642;-39
2022/04/25 06:56:45;;;;;;;4.47;2.43;;;8.30;99.90;;;;;;5087969;28;20197;-39
2022/04/25 06:59:12;;;;;;;8.30;2.27;;;8.50;99.90;;;;;;5086119;28;20206;-40
2022/04/25 07:01:40;;;;;;;2.90;1.80;;;8.50;99.90;;;;;;5109646;28;20210;-41
2022/04/25 07:04:07;;;;;;;4.50;2.47;;;8.50;99.90;;;;;;5097782;28;20661;-41
2022/04/25 07:06:34;;;;;;;4.27;2.03;;;8.60;99.90;;;;;;5092635;28;20202;-40
2022/04/25 07:09:00;;;;;;;4.77;2.20;;;8.60;99.90;;;;;;5085247;28;20329;-41
2022/04/25 07:11:27;;;;;;;3.97;2.50;;;8.70;99.90;;;;;;5107249;27;20202;-40
2022/04/25 07:13:55;;;;;;;3.40;2.10;;;8.80;99.90;;;;;;5092973;27;20446;-40
2022/04/25 07:16:24;;;;;;;6.07;2.70;;;8.90;99.90;;;;;;5091125;27;20793;-40
2022/04/25 07:18:52;;;;;;;4.83;2.40;;;8.90;99.90;;;;;;5092899;27;21462;-41
2022/04/25 07:29:33;;;;;;;2.83;2.40;;;9.10;99.90;;;;;;5097349;27;20267;-40
2022/04/25 07:32:00;;;;;;;6.53;2.17;;;9.10;99.90;;;;;;5107893;27;20204;-40
2022/04/25 07:34:28;;;;;;;3.53;1.90;;;9.20;99.90;;;;;;5104151;27;20209;-40
2022/04/25 07:37:18;;;;;;;6.53;2.70;;;9.30;99.90;;;;;;5106248;27;20278;-39
2022/04/25 07:39:46;;;;;;;3.60;1.90;;;9.40;99.90;;;;;;5093745;27;20220;-40
2022/04/25 07:42:15;;;;;;;3.60;2.40;;;9.40;99.90;;;;;;5089444;27;20217;-41
2022/04/25 07:44:42;;;;;;;5.33;2.27;;;9.50;99.90;;;;;;5092807;27;20189;-40
2022/04/25 07:47:09;;;;;;;5.07;2.53;;;9.60;99.90;;;;;;5091914;27;20209;-42
2022/04/25 07:49:38;;;;;;;3.80;2.20;;;9.60;99.90;;;;;;5101404;27;20218;-40
2022/04/25 07:52:05;;;;;;;5.37;2.13;;;9.80;99.90;;;;;;5108604;27;20273;-40
2022/04/25 07:54:32;;;;;;;4.73;2.43;;;9.90;99.90;;;;;;5090371;27;20251;-40
2022/04/25 07:56:58;;;;;;;4.20;2.40;;;10.00;99.90;;;;;;5101987;27;20188;-39
2022/04/25 07:59:26;;;;;;;3.47;2.40;;;10.10;99.90;;;;;;5089415;27;20630;-42
2022/04/25 08:01:53;;;;;;;6.33;2.00;;;10.20;99.90;;;;;;5095122;27;20244;-39
2022/04/25 08:04:20;;;;;;;3.53;2.60;;;10.30;99.90;;;;;;5111130;27;20606;-39
2022/04/25 08:06:48;;;;;;;3.13;2.83;;;10.40;99.90;;;;;;5103671;27;20711;-40
2022/04/25 08:09:15;;;;;;;4.10;2.97;;;10.40;99.90;;;;;;5106163;27;20235;-41
2022/04/25 08:11:42;;;;;;;3.57;2.47;;;10.40;99.90;;;;;;5097975;27;20296;-39
2022/04/25 08:19:39;;;;;;;2.43;2.20;;;10.80;99.90;;;;;;5106044;27;20727;-40
2022/04/25 08:22:09;;;;;;;3.30;2.23;;;10.80;99.90;;;;;;5089832;27;20232;-41
2022/04/25 08:24:36;;;;;;;2.90;2.60;;;10.90;99.90;;;;;;5108176;27;20208;-41
2022/04/25 08:27:04;;;;;;;7.53;3.37;;;10.80;99.90;;;;;;5098517;27;20285;-40
2022/04/25 08:29:32;;;;;;;3.60;2.70;;;10.70;99.90;;;;;;5102237;27;20220;-40
2022/04/25 08:31:59;;;;;;;3.93;2.53;;;10.80;99.90;;;;;;5088136;27;20378;-39
2022/04/25 08:34:26;;;;;;;3.43;2.30;;;10.90;99.90;;;;;;5097219;27;20198;-40
2022/04/25 08:36:53;;;;;;;4.43;2.77;;;11.00;99.90;;;;;;5090935;27;20237;-40
2022/04/25 08:39:22;;;;;;;2.33;2.10;;;11.10;99.90;;;;;;5113085;27;20189;-40
2022/04/25 08:41:52;;;;;;;3.20;2.70;;;11.20;99.90;;;;;;5093250;27;20200;-40
2022/04/25 08:44:19;;;;;;;2.60;2.10;;;11.30;99.90;;;;;;5088763;27;20205;-40
2022/04/25 08:46:52;;;;;;;5.40;2.60;;;11.40;99.90;;;;;;5095084;28;20189;-41
2022/04/25 08:49:19;;;;;;;7.33;2.20;;;11.50;99.90;;;;;;5103306;27;20295;-41
2022/04/25 08:51:47;;;;;;;4.40;2.03;;;11.50;99.90;;;;;;5092728;27;20960;-42
2022/04/25 08:54:14;;;;;;;4.63;2.70;;;11.70;99.90;;;;;;5089984;27;20226;-43
2022/04/25 08:56:43;;;;;;;5.13;2.27;;;11.60;99.90;;;;;;5086416;27;20193;-42
2022/04/25 08:59:11;;;;;;;4.70;2.60;;;11.50;99.90;;;;;;5101337;27;20212;-41
2022/04/25 09:01:40;;;;;;;4.93;2.33;;;11.50;99.90;;;;;;5092671;27;20731;-41
2022/04/25 09:04:07;;;;;;;4.00;2.20;;;11.60;99.90;;;;;;5098127;27;20208;-39
2022/04/25 09:06:33;;;;;;;4.90;2.40;;;11.70;99.90;;;;;;5093351;27;20202;-40
2022/04/25 09:09:00;;;;;;;5.83;2.10;;;11.70;99.90;;;;;;5101074;27;20244;-43
2022/04/25 09:14:16;;;;;;;2.60;2.40;;;12.00;99.90;;;;;;5090159;28;20193;-44
2022/04/25 09:16:43;;;;;;;6.03;2.57;;;12.00;99.90;;;;;;5090697;27;21096;-42
2022/04/25 09:19:10;;;;;;;3.20;2.33;;;12.00;99.90;;;;;;5089661;27;20193;-40
2022/04/25 09:21:41;;;;;;;3.90;2.00;;;12.10;99.90;;;;;;5104932;27;20828;-39
2022/04/25 09:24:21;;;;;;;4.53;2.50;;;12.10;99.90;;;;;;5094288;27;20203;-41
2022/04/25 09:26:52;;;;;;;4.30;2.33;;;12.10;99.90;;;;;;5106349;27;20749;-39
2022/04/25 09:29:26;;;;;;;2.33;2.10;;;12.10;99.90;;;;;;5091382;28;20243;-40
2022/04/25 09:31:54;;;;;;;3.00;2.17;;;12.20;99.90;;;;;;5105093;27;20410;-39
2022/04/25 09:37:06;;;;;;;2.30;2.10;;;12.30;99.90;;;;;;5098279;27;20659;-39
2022/04/25 09:39:33;;;;;;;2.77;2.57;;;12.20;99.90;;;;;;5094589;27;20200;-42
2022/04/25 09:42:00;;;;;;;3.07;2.20;;;12.20;99.90;;;;;;5091341;27;20305;-40
2022/04/25 09:44:30;;;;;;;3.27;2.10;;;12.20;99.90;;;;;;5106675;27;20198;-41
2022/04/25 09:46:58;;;;;;;3.67;2.53;;;12.40;99.90;;;;;;5094779;27;20277;-40
2022/04/25 09:49:25;;;;;;;3.50;2.50;;;12.40;99.90;;;;;;5086053;27;20820;-41
2022/04/25 09:52:01;;;;;;;3.43;2.20;;;12.40;99.90;;;;;;5094860;27;20444;-40
2022/04/25 09:54:29;;;;;;;2.57;2.13;;;12.50;99.90;;;;;;5105798;27;20197;-41
2022/04/25 09:56:56;;;;;;;3.33;2.17;;;12.50;99.90;;;;;;5093827;27;20849;-41
2022/04/25 09:59:22;;;;;;;3.73;2.30;;;12.50;99.90;;;;;;5092315;28;20661;-43
2022/04/25 10:02:04;;;;;;;4.07;2.27;;;12.60;99.90;;;;;;5096273;27;20212;-41
2022/04/25 10:04:33;;;;;;;1.97;1.57;;;12.70;99.90;;;;;;5091934;27;20684;-42
2022/04/25 10:07:01;;;;;;;6.70;1.93;;;12.70;99.90;;;;;;5102187;27;20221;-41
2022/04/25 10:09:30;;;;;;;2.50;1.80;;;12.80;99.90;;;;;;5092912;28;20229;-40
2022/04/25 10:11:58;;;;;;;3.17;2.03;;;12.80;99.90;;;;;;5097477;27;20350;-42
2022/04/25 10:14:26;;;;;;;2.17;1.73;;;;;;;;;;5089283;27;20205;-41
2022/04/25 10:16:56;;;;;;;3.13;2.03;;;13.00;99.90;;;;;;5093379;27;20191;-40
2022/04/25 10:19:24;;;;;;;2.77;2.10;;;13.20;99.90;;;;;;5099124;27;20862;-40
2022/04/25 10:21:52;;;;;;;4.90;2.50;;;13.20;99.90;;;;;;5081583;27;20203;-45
2022/04/25 10:24:19;;;;;;;2.13;1.90;;;13.10;99.90;;;;;;5095941;27;20190;-42
2022/04/25 10:26:48;;;;;;;2.83;2.20;;;13.00;99.90;;;;;;5086721;28;20206;-43
2022/04/25 10:29:18;;;;;;;2.80;1.90;;;13.00;99.90;;;;;;5102452;28;20224;-41
2022/04/25 10:31:49;;;;;;;2.90;2.10;;;13.00;99.90;;;;;;5091796;28;20983;-40
2022/04/25 10:34:16;;;;;;;3.90;2.20;;;13.10;99.90;;;;;;5097301;27;20680;-41
2022/04/25 10:36:47;;;;;;;2.33;2.10;;;13.20;99.90;;;;;;5088311;27;20631;-42
2022/04/25 10:39:16;;;;;;;2.80;2.33;;;13.30;99.90;;;;;;5098445;28;20189;-42
2022/04/25 10:45:02;;;;;;;3.87;2.13;;;13.40;99.90;;;;;;5088713;28;20232;-41
2022/04/25 10:47:29;;;;;;;1.70;1.60;;;13.50;99.90;;;;;;5104587;27;20202;-39
2022/04/25 10:50:08;;;;;;;2.73;1.80;;;13.40;99.20;;;;;;5093382;27;20217;-41
2022/04/25 10:52:54;;;;;;;1.93;1.83;;;13.40;98.90;;;;;;5099365;27;20216;-42
2022/04/25 10:55:26;;;;;;;2.87;1.87;;;13.50;98.70;;;;;;5102558;27;20468;-42
2022/04/25 10:58:15;;;;;;;2.60;1.80;;;13.70;98.50;;;;;;5093660;28;20204;-41
2022/04/25 11:00:57;;;;;;;2.57;1.80;;;13.80;97.80;;;;;;5105789;27;20188;-41
2022/04/25 11:03:31;;;;;;;1.97;1.70;;;13.80;97.00;;;;;;5093673;28;20224;-43
2022/04/25 11:06:01;;;;;;;2.00;1.60;;;13.90;96.50;;;;;;5092157;28;20203;-42
2022/04/25 11:08:37;;;;;;;2.83;1.70;;;14.00;96.10;;;;;;5086227;27;20204;-40
2022/04/25 11:11:20;;;;;;;2.20;1.90;;;13.80;96.60;;;;;;5107880;27;20203;-40
2022/04/25 11:14:12;;;;;;;2.00;1.90;;;14.10;96.50;;;;;;5095649;28;20210;-40
2022/04/25 11:16:40;;;;;;;5.07;1.97;;;14.10;94.50;;;;;;5095148;27;20208;-41
2022/04/25 11:19:12;;;;;;;2.30;1.60;;;14.00;96.20;;;;;;5091906;28;20658;-40
2022/04/25 11:21:47;;;;;;;3.47;1.87;;;14.10;95.70;;;;;;5084674;28;20233;-39
2022/04/25 11:24:45;;;;;;;1.83;1.63;;;14.10;94.80;;;;;;5088722;27;20221;-41
2022/04/25 11:27:14;;;;;;;1.70;1.60;;;;;;;;;;5057153;28;20211;-42
2022/04/25 11:29:45;;;;;;;1.60;1.50;;;13.90;99.70;;;;;;5093192;27;20225;-40
2022/04/25 11:32:30;;;;;;;1.87;1.77;;;14.40;94.70;;;;;;5093387;27;20221;-41
2022/04/25 11:34:59;;;;;;;2.80;2.10;;;14.40;94.10;;;;;;5088011;27;20202;-43
2022/04/25 11:37:27;;;;;;;2.93;2.10;;;14.40;93.90;;;;;;5101892;28;20209;-42
2022/04/25 11:40:00;;;;;;;1.90;1.80;;;14.30;93.60;;;;;;5085046;27;20472;-41
2022/04/25 11:42:31;;;;;;;1.77;1.67;;;14.10;92.40;;;;;;5104644;27;20286;-41
2022/04/25 11:44:59;;;;;;;2.30;2.00;;;14.10;93.20;;;;;;5084023;28;20190;-40
2022/04/25 11:47:25;;;;;;;3.83;2.00;;;14.10;93.40;;;;;;5090016;28;20193;-40
2022/04/25 11:49:57;;;;;;;1.50;1.40;;;14.40;93.40;;;;;;5097097;28;20229;-43
2022/04/25 11:52:24;;;;;;;2.80;1.70;;;14.50;92.20;;;;;;5101587;28;20257;-41
2022/04/25 11:54:51;;;;;;;2.23;1.70;;;14.50;92.30;;;;;;5081201;27;20700;-40
2022/04/25 11:57:21;;;;;;;2.20;1.80;;;14.50;91.90;;;;;;5108894;27;20209;-43
2022/04/25 11:59:47;;;;;;;2.43;1.63;;;14.50;91.30;;;;;;5092751;27;20216;-41
2022/04/25 12:02:15;;;;;;;2.53;2.00;;;14.70;92.10;;;;;;5093676;27;20221;-41
2022/04/25 12:04:43;;;;;;;2.63;1.70;;;14.80;92.50;;;;;;5092132;27;20213;-40
2022/04/25 12:07:11;;;;;;;2.00;1.80;;;14.90;91.80;;;;;;5092911;28;20202;-40
2022/04/25 12:18:13;;;;;;;2.47;2.00;;;14.90;90.50;;;;;;5083712;27;20265;-40
2022/04/25 12:20:42;;;;;;;2.27;1.77;;;14.80;89.60;;;;;;5083931;28;20690;-40
2022/04/25 12:23:10;;;;;;;2.23;2.03;;;14.70;90.10;;;;;;5085741;28;20217;-40
2022/04/25 12:25:41;;;;;;;3.43;2.00;;;14.60;89.20;;;;;;5074883;27;20336;-40
2022/04/25 12:28:18;;;;;;;1.77;1.67;;;14.50;89.90;;;;;;5092731;27;20277;-41
2022/04/25 12:30:50;;;;;;;4.13;1.93;;;14.50;86.90;;;;;;5097383;27;20216;-40
2022/04/25 12:33:19;;;;;;;6.77;2.37;;;14.50;89.30;;;;;;5085799;27;20232;-42
2022/04/25 12:35:49;;;;;;;1.53;1.43;;;14.70;90.00;;;;;;5090982;27;20683;-39
2022/04/25 12:38:35;;;;;;;1.83;1.70;;;14.80;89.30;;;;;;5089535;28;20198;-43
2022/04/25 12:41:01;;;;;;;2.07;1.87;;;15.10;85.30;;;;;;5083426;27;20198;-41
2022/04/25 12:43:37;;;;;;;2.47;1.90;;;15.00;88.50;;;;;;5097328;27;20214;-40
2022/04/25 12:46:06;;;;;;;2.40;2.20;;;15.20;89.20;;;;;;5090038;27;20205;-41
2022/04/25 12:48:58;;;;;;;3.87;1.60;;;15.20;87.00;;;;;;5086350;27;20211;-41
2022/04/25 12:51:31;;;;;;;2.60;1.80;;;15.30;88.20;;;;;;5099155;27;20289;-45
2022/04/25 12:53:58;;;;;;;3.43;1.87;;;15.30;88.30;;;;;;5086527;27;20942;-42
2022/04/25 12:56:26;;;;;;;2.33;2.13;;;15.30;87.30;;;;;;5073243;27;20197;-43
2022/04/25 12:58:54;;;;;;;6.53;2.00;;;15.30;87.30;;;;;;5099345;27;20197;-40
2022/04/25 13:01:32;;;;;;;3.60;1.90;;;15.40;88.10;;;;;;5102517;27;20186;-41
2022/04/25 13:04:12;;;;;;;2.63;1.87;;;15.50;84.70;;;;;;5086532;27;20220;-40
2022/04/25 13:06:39;;;;;;;2.30;2.13;;;15.70;85.70;;;;;;5095849;28;20208;-41
2022/04/25 13:09:06;;;;;;;2.53;2.07;;;15.80;83.40;;;;;;5084660;28;20202;-40
2022/04/25 13:11:34;;;;;;;5.73;2.00;;;15.90;83.10;;;;;;5086599;27;20805;-42
2022/04/25 13:14:03;;;;;;;2.80;1.73;;;16.30;83.10;;;;;;5115986;27;20202;-41
2022/04/25 13:16:30;;;;;;;2.60;1.93;;;16.50;81.30;;;;;;5089781;27;20194;-41
2022/04/25 13:18:57;;;;;;;2.03;1.93;;;16.60;80.00;;;;;;5089683;27;20705;-40
2022/04/25 13:21:25;;;;;;;3.33;1.60;;;16.80;82.10;;;;;;5089402;28;20283;-41
2022/04/25 13:23:52;;;;;;;2.37;1.80;;;17.30;80.50;;;;;;5096972;28;20206;-40
2022/04/25 13:26:19;;;;;;;2.47;2.00;;;17.40;76.20;;;;;;5096409;27;20285;-41
2022/04/25 13:28:46;;;;;;;2.30;1.60;;;17.30;74.60;;;;;;5077878;27;20485;-41
2022/04/25 13:31:14;;;;;;;2.33;1.90;;;17.20;72.20;;;;;;5098670;27;20224;-40
2022/04/25 13:33:41;;;;;;;1.87;1.77;;;16.90;72.60;;;;;;5089310;27;20904;-40
2022/04/25 13:36:08;;;;;;;1.73;1.33;;;16.90;71.90;;;;;;5094730;28;20205;-39
2022/04/25 13:38:35;;;;;;;3.37;1.70;;;17.00;70.80;;;;;;5090550;27;20706;-41
2022/04/25 13:41:02;;;;;;;1.60;1.50;;;17.30;71.60;;;;;;5083349;28;20190;-40